sensor_id;sensor_type;location;lat;lon;timestamp;pressure;altitude;pressure_sealevel;temperature;humidity
8717;BME280;4395;48.554;8.820;2024-02-04T00:00:11;97020.69;;;7.13;69.70
8717;BME280;4395;48.554;8.820;2024-02-04T00:02:16;97031.06;;;7.13;69.78
8717;BME280;4395;48.554;8.820;2024-02-04T00:04:21;97033.44;;;7.15;69.96
8717;BME280;4395;48.554;8.820;2024-02-04T00:06:25;97028.47;;;7.13;69.76
8717;BME280;4395;48.554;8.820;2024-02-04T00:08:28;97034.25;;;7.15;69.65
8717;BME280;4395;48.554;8.820;2024-02-04T00:10:31;97032.66;;;7.14;69.86
8717;BME280;4395;48.554;8.820;2024-02-04T00:12:34;97029.50;;;7.12;69.89
8717;BME280;4395;48.554;8.820;2024-02-04T00:14:37;97021.13;;;7.10;69.81
8717;BME280;4395;48.554;8.820;2024-02-04T00:16:40;97019.94;;;7.06;70.09
8717;BME280;4395;48.554;8.820;2024-02-04T00:18:44;97026.09;;;7.05;70.04
8717;BME280;4395;48.554;8.820;2024-02-04T00:20:47;97027.69;;;7.06;69.95
8717;BME280;4395;48.554;8.820;2024-02-04T00:22:50;97021.13;;;7.10;70.05
8717;BME280;4395;48.554;8.820;2024-02-04T00:24:53;97021.13;;;7.10;69.93
8717;BME280;4395;48.554;8.820;2024-02-04T00:26:56;97005.16;;;7.13;69.87
8717;BME280;4395;48.554;8.820;2024-02-04T00:28:59;96993.22;;;7.12;69.86
8717;BME280;4395;48.554;8.820;2024-02-04T00:31:02;96995.22;;;7.10;69.86
8717;BME280;4395;48.554;8.820;2024-02-04T00:33:05;96992.63;;;7.10;70.00
8717;BME280;4395;48.554;8.820;2024-02-04T00:35:09;96988.44;;;7.09;69.94
8717;BME280;4395;48.554;8.820;2024-02-04T00:37:12;96993.84;;;7.08;70.10
8717;BME280;4395;48.554;8.820;2024-02-04T00:39:15;96996.63;;;7.06;70.08
8717;BME280;4395;48.554;8.820;2024-02-04T00:41:17;96988.84;;;7.06;70.10
8717;BME280;4395;48.554;8.820;2024-02-04T00:43:20;96978.69;;;7.05;70.25
8717;BME280;4395;48.554;8.820;2024-02-04T00:45:23;96982.47;;;7.02;70.44
8717;BME280;4395;48.554;8.820;2024-02-04T00:47:26;96982.47;;;7.02;70.43
8717;BME280;4395;48.554;8.820;2024-02-04T00:49:29;96993.84;;;7.01;70.47
8717;BME280;4395;48.554;8.820;2024-02-04T00:51:33;96979.31;;;7.00;70.54
8717;BME280;4395;48.554;8.820;2024-02-04T00:53:36;96965.78;;;6.98;70.62
8717;BME280;4395;48.554;8.820;2024-02-04T00:55:40;96965.19;;;6.96;70.74
8717;BME280;4395;48.554;8.820;2024-02-04T00:57:43;96955.22;;;6.93;70.75
8717;BME280;4395;48.554;8.820;2024-02-04T00:59:45;96957.41;;;6.96;70.78
8717;BME280;4395;48.554;8.820;2024-02-04T01:01:48;96962.19;;;6.93;70.76
8717;BME280;4395;48.554;8.820;2024-02-04T01:03:51;96972.75;;;6.91;70.76
8717;BME280;4395;48.554;8.820;2024-02-04T01:05:54;96974.75;;;6.89;70.93
8717;BME280;4395;48.554;8.820;2024-02-04T01:07:59;96966.97;;;6.89;71.03
8717;BME280;4395;48.554;8.820;2024-02-04T01:10:02;96957.22;;;6.91;71.00
8717;BME280;4395;48.554;8.820;2024-02-04T01:12:10;96961.81;;;6.89;71.01
8717;BME280;4395;48.554;8.820;2024-02-04T01:14:13;96974.75;;;6.89;70.92
8717;BME280;4395;48.554;8.820;2024-02-04T01:16:16;96985.09;;;6.89;71.01
8717;BME280;4395;48.554;8.820;2024-02-04T01:18:19;96978.13;;;6.90;70.92
8717;BME280;4395;48.554;8.820;2024-02-04T01:20:21;96973.75;;;6.90;71.00
8717;BME280;4395;48.554;8.820;2024-02-04T01:22:23;96974.53;;;6.91;70.89
8717;BME280;4395;48.554;8.820;2024-02-04T01:24:30;96980.13;;;6.94;70.79
8717;BME280;4395;48.554;8.820;2024-02-04T01:26:33;96986.28;;;6.93;70.87
8717;BME280;4395;48.554;8.820;2024-02-04T01:28:35;96973.75;;;6.97;70.70
8717;BME280;4395;48.554;8.820;2024-02-04T01:30:37;96957.41;;;6.96;70.74
8717;BME280;4395;48.554;8.820;2024-02-04T01:32:40;96956.41;;;6.97;70.67
8717;BME280;4395;48.554;8.820;2024-02-04T01:34:43;96958.22;;;6.97;70.75
8717;BME280;4395;48.554;8.820;2024-02-04T01:36:46;96946.25;;;6.96;70.54
8717;BME280;4395;48.554;8.820;2024-02-04T01:38:49;96942.69;;;6.90;70.84
8717;BME280;4395;48.554;8.820;2024-02-04T01:40:53;96952.25;;;6.90;70.91
8717;BME280;4395;48.554;8.820;2024-02-04T01:42:56;96940.53;;;6.87;71.22
8717;BME280;4395;48.554;8.820;2024-02-04T01:44:59;96931.16;;;6.79;71.27
8717;BME280;4395;48.554;8.820;2024-02-04T01:47:02;96929.56;;;6.78;71.21
8717;BME280;4395;48.554;8.820;2024-02-04T01:49:05;96931.19;;;6.73;71.42
8717;BME280;4395;48.554;8.820;2024-02-04T01:51:08;96936.78;;;6.70;71.62
8717;BME280;4395;48.554;8.820;2024-02-04T01:53:11;96935.00;;;6.64;71.70
8717;BME280;4395;48.554;8.820;2024-02-04T01:55:14;96938.78;;;6.61;72.07
8717;BME280;4395;48.554;8.820;2024-02-04T01:57:19;96943.16;;;6.61;72.13
8717;BME280;4395;48.554;8.820;2024-02-04T01:59:25;96947.94;;;6.57;72.18
8717;BME280;4395;48.554;8.820;2024-02-04T02:01:34;96951.94;;;6.60;72.16
8717;BME280;4395;48.554;8.820;2024-02-04T02:03:38;96950.94;;;6.61;71.96
8717;BME280;4395;48.554;8.820;2024-02-04T02:05:41;96955.50;;;6.59;72.03
8717;BME280;4395;48.554;8.820;2024-02-04T02:07:44;96951.53;;;6.63;72.13
8717;BME280;4395;48.554;8.820;2024-02-04T02:09:49;96953.13;;;6.64;72.13
8717;BME280;4395;48.554;8.820;2024-02-04T02:11:57;96958.88;;;6.66;71.96
8717;BME280;4395;48.554;8.820;2024-02-04T02:14:05;96961.88;;;6.63;71.93
8717;BME280;4395;48.554;8.820;2024-02-04T02:16:15;96961.09;;;6.62;72.01
8717;BME280;4395;48.554;8.820;2024-02-04T02:18:25;96956.50;;;6.58;72.16
8717;BME280;4395;48.554;8.820;2024-02-04T02:20:41;96958.28;;;6.57;72.28
8717;BME280;4395;48.554;8.820;2024-02-04T02:22:49;96953.50;;;6.54;72.52
8717;BME280;4395;48.554;8.820;2024-02-04T02:24:56;96948.53;;;6.53;72.56
8717;BME280;4395;48.554;8.820;2024-02-04T02:27:01;96939.22;;;6.52;72.52
8717;BME280;4395;48.554;8.820;2024-02-04T02:29:04;96939.59;;;6.48;73.01
8717;BME280;4395;48.554;8.820;2024-02-04T02:31:09;96942.38;;;6.47;72.98
8717;BME280;4395;48.554;8.820;2024-02-04T02:33:12;96943.59;;;6.44;73.01
8717;BME280;4395;48.554;8.820;2024-02-04T02:35:16;96944.19;;;6.46;73.08
8717;BME280;4395;48.554;8.820;2024-02-04T02:37:24;96944.97;;;6.47;73.11
8717;BME280;4395;48.554;8.820;2024-02-04T02:39:31;96945.19;;;6.45;73.19
8717;BME280;4395;48.554;8.820;2024-02-04T02:41:38;96945.19;;;6.45;73.19
8717;BME280;4395;48.554;8.820;2024-02-04T02:43:45;96941.19;;;6.43;73.19
8717;BME280;4395;48.554;8.820;2024-02-04T02:45:48;96942.38;;;6.47;73.22
8717;BME280;4395;48.554;8.820;2024-02-04T02:47:52;96934.81;;;6.45;73.19
8717;BME280;4395;48.554;8.820;2024-02-04T02:49:56;96944.38;;;6.45;73.25
8717;BME280;4395;48.554;8.820;2024-02-04T02:51:59;96945.56;;;6.42;73.52
8717;BME280;4395;48.554;8.820;2024-02-04T02:54:01;96954.31;;;6.41;73.39
8717;BME280;4395;48.554;8.820;2024-02-04T02:56:05;96952.53;;;6.42;73.73
8717;BME280;4395;48.554;8.820;2024-02-04T02:58:10;96943.38;;;6.46;73.39
8717;BME280;4395;48.554;8.820;2024-02-04T03:00:14;96947.97;;;6.50;73.22
8717;BME280;4395;48.554;8.820;2024-02-04T03:02:16;96945.78;;;6.47;73.18
8717;BME280;4395;48.554;8.820;2024-02-04T03:04:18;96939.59;;;6.48;73.38
8717;BME280;4395;48.554;8.820;2024-02-04T03:06:21;96945.94;;;6.53;73.17
8717;BME280;4395;48.554;8.820;2024-02-04T03:08:24;96940.38;;;6.56;73.19
8717;BME280;4395;48.554;8.820;2024-02-04T03:10:27;96947.34;;;6.55;73.24
8717;BME280;4395;48.554;8.820;2024-02-04T03:12:30;96955.09;;;6.55;73.26
8717;BME280;4395;48.554;8.820;2024-02-04T03:14:34;96943.34;;;6.53;73.18
8717;BME280;4395;48.554;8.820;2024-02-04T03:16:36;96942.75;;;6.57;73.03
8717;BME280;4395;48.554;8.820;2024-02-04T03:18:40;96948.53;;;6.59;72.92
8717;BME280;4395;48.554;8.820;2024-02-04T03:20:44;96956.69;;;6.56;73.01
8717;BME280;4395;48.554;8.820;2024-02-04T03:22:48;96956.50;;;6.58;73.09
8717;BME280;4395;48.554;8.820;2024-02-04T03:24:52;96952.91;;;6.59;72.91
8717;BME280;4395;48.554;8.820;2024-02-04T03:26:56;96956.69;;;6.56;72.92
8717;BME280;4395;48.554;8.820;2024-02-04T03:28:59;96974.22;;;6.54;72.84
8717;BME280;4395;48.554;8.820;2024-02-04T03:31:03;96958.50;;;6.56;72.80
8717;BME280;4395;48.554;8.820;2024-02-04T03:33:06;96956.69;;;6.56;72.77
8717;BME280;4395;48.554;8.820;2024-02-04T03:35:09;96952.16;;;6.52;73.19
8717;BME280;4395;48.554;8.820;2024-02-04T03:37:12;96944.78;;;6.48;73.17
8717;BME280;4395;48.554;8.820;2024-02-04T03:39:15;96945.56;;;6.42;73.35
8717;BME280;4395;48.554;8.820;2024-02-04T03:41:18;96945.19;;;6.45;73.33
8717;BME280;4395;48.554;8.820;2024-02-04T03:43:21;96945.19;;;6.45;73.22
8717;BME280;4395;48.554;8.820;2024-02-04T03:45:24;96931.63;;;6.43;73.14
8717;BME280;4395;48.554;8.820;2024-02-04T03:47:28;96927.69;;;6.34;73.50
8717;BME280;4395;48.554;8.820;2024-02-04T03:49:31;96906.38;;;6.32;73.47
8717;BME280;4395;48.554;8.820;2024-02-04T03:51:34;96906.22;;;6.27;73.55
8717;BME280;4395;48.554;8.820;2024-02-04T03:53:37;96910.59;;;6.27;73.65
8717;BME280;4395;48.554;8.820;2024-02-04T03:55:40;96915.34;;;6.23;73.54
8717;BME280;4395;48.554;8.820;2024-02-04T03:57:43;96911.56;;;6.19;73.79
8717;BME280;4395;48.554;8.820;2024-02-04T03:59:45;96895.69;;;6.16;73.95
8717;BME280;4395;48.554;8.820;2024-02-04T04:01:48;96898.28;;;6.16;74.00
8717;BME280;4395;48.554;8.820;2024-02-04T04:03:52;96893.50;;;6.12;74.10
8717;BME280;4395;48.554;8.820;2024-02-04T04:05:55;96879.56;;;6.07;74.33
8717;BME280;4395;48.554;8.820;2024-02-04T04:07:58;96879.56;;;6.07;74.36
8717;BME280;4395;48.554;8.820;2024-02-04T04:10:01;96871.63;;;6.02;74.38
8717;BME280;4395;48.554;8.820;2024-02-04T04:12:03;96860.69;;;6.00;74.54
8717;BME280;4395;48.554;8.820;2024-02-04T04:14:06;96869.44;;;5.99;74.60
8717;BME280;4395;48.554;8.820;2024-02-04T04:16:09;96879.16;;;5.97;74.63
8717;BME280;4395;48.554;8.820;2024-02-04T04:18:12;96879.16;;;5.97;74.69
8717;BME280;4395;48.554;8.820;2024-02-04T04:20:16;96876.00;;;5.95;74.62
8717;BME280;4395;48.554;8.820;2024-02-04T04:22:19;96893.09;;;5.96;74.44
8717;BME280;4395;48.554;8.820;2024-02-04T04:24:22;96900.66;;;5.91;74.64
8717;BME280;4395;48.554;8.820;2024-02-04T04:26:25;96905.41;;;5.94;74.43
8717;BME280;4395;48.554;8.820;2024-02-04T04:28:28;96913.78;;;5.96;74.43
8717;BME280;4395;48.554;8.820;2024-02-04T04:30:30;96907.81;;;5.95;74.37
8717;BME280;4395;48.554;8.820;2024-02-04T04:32:33;96911.78;;;5.98;74.68
8717;BME280;4395;48.554;8.820;2024-02-04T04:34:36;96923.53;;;6.00;74.40
8717;BME280;4395;48.554;8.820;2024-02-04T04:36:40;96917.75;;;6.05;74.10
8717;BME280;4395;48.554;8.820;2024-02-04T04:38:43;96917.94;;;6.10;74.04
8717;BME280;4395;48.554;8.820;2024-02-04T04:40:46;96909.81;;;6.13;73.32
8717;BME280;4395;48.554;8.820;2024-02-04T04:42:49;96905.03;;;6.10;73.55
8717;BME280;4395;48.554;8.820;2024-02-04T04:44:52;96900.44;;;6.12;73.48
8717;BME280;4395;48.554;8.820;2024-02-04T04:46:54;96905.03;;;6.10;73.51
8717;BME280;4395;48.554;8.820;2024-02-04T04:48:56;96893.09;;;6.09;73.48
8717;BME280;4395;48.554;8.820;2024-02-04T04:51:00;96902.81;;;6.07;73.43
8717;BME280;4395;48.554;8.820;2024-02-04T04:53:03;96918.53;;;6.05;73.58
8717;BME280;4395;48.554;8.820;2024-02-04T04:55:07;96912.56;;;6.05;73.62
8717;BME280;4395;48.554;8.820;2024-02-04T04:57:10;96918.97;;;6.02;73.70
8717;BME280;4395;48.554;8.820;2024-02-04T04:59:15;96922.34;;;6.03;73.71
8717;BME280;4395;48.554;8.820;2024-02-04T05:01:19;96928.50;;;6.02;73.70
8717;BME280;4395;48.554;8.820;2024-02-04T05:03:22;96930.09;;;6.03;73.81
8717;BME280;4395;48.554;8.820;2024-02-04T05:05:25;96928.50;;;6.02;73.82
8717;BME280;4395;48.554;8.820;2024-02-04T05:07:27;96930.09;;;6.03;73.74
8717;BME280;4395;48.554;8.820;2024-02-04T05:09:31;96926.50;;;6.04;74.01
8717;BME280;4395;48.554;8.820;2024-02-04T05:11:34;96922.13;;;6.11;73.66
8717;BME280;4395;48.554;8.820;2024-02-04T05:13:38;96926.50;;;6.10;73.74
8717;BME280;4395;48.554;8.820;2024-02-04T05:15:41;96923.72;;;6.12;73.70
8717;BME280;4395;48.554;8.820;2024-02-04T05:17:44;96919.34;;;6.12;73.69
8717;BME280;4395;48.554;8.820;2024-02-04T05:19:47;96928.50;;;6.15;73.73
8717;BME280;4395;48.554;8.820;2024-02-04T05:21:50;96934.25;;;6.17;73.84
8717;BME280;4395;48.554;8.820;2024-02-04T05:23:53;96932.88;;;6.21;73.61
8717;BME280;4395;48.554;8.820;2024-02-04T05:25:57;96920.72;;;6.22;73.53
8717;BME280;4395;48.554;8.820;2024-02-04T05:27:59;96908.38;;;6.17;73.37
8717;BME280;4395;48.554;8.820;2024-02-04T05:30:03;96923.34;;;6.15;73.53
8717;BME280;4395;48.554;8.820;2024-02-04T05:32:06;96936.25;;;6.15;73.81
8717;BME280;4395;48.554;8.820;2024-02-04T05:34:08;96940.22;;;6.18;73.84
8717;BME280;4395;48.554;8.820;2024-02-04T05:36:11;96942.41;;;6.21;73.82
8717;BME280;4395;48.554;8.820;2024-02-04T05:38:16;96953.53;;;6.21;73.68
8717;BME280;4395;48.554;8.820;2024-02-04T05:40:18;96942.59;;;6.19;73.67
8717;BME280;4395;48.554;8.820;2024-02-04T05:42:24;96953.94;;;6.18;73.88
8717;BME280;4395;48.554;8.820;2024-02-04T05:44:27;96962.31;;;6.20;74.10
8717;BME280;4395;48.554;8.820;2024-02-04T05:46:29;96970.28;;;6.25;73.94
8717;BME280;4395;48.554;8.820;2024-02-04T05:48:32;96969.84;;;6.28;74.19
8717;BME280;4395;48.554;8.820;2024-02-04T05:50:36;96963.47;;;6.31;74.13
8717;BME280;4395;48.554;8.820;2024-02-04T05:52:39;96970.25;;;6.38;73.80
8717;BME280;4395;48.554;8.820;2024-02-04T05:54:42;96963.06;;;6.40;73.85
8717;BME280;4395;48.554;8.820;2024-02-04T05:56:44;96961.91;;;6.36;73.80
8717;BME280;4395;48.554;8.820;2024-02-04T05:58:49;96959.91;;;6.38;73.89
8717;BME280;4395;48.554;8.820;2024-02-04T06:00:51;96966.69;;;6.39;73.86
8717;BME280;4395;48.554;8.820;2024-02-04T06:02:54;96967.06;;;6.36;73.99
8717;BME280;4395;48.554;8.820;2024-02-04T06:04:57;96962.91;;;6.35;74.24
8717;BME280;4395;48.554;8.820;2024-02-04T06:06:58;96965.28;;;6.37;74.39
8717;BME280;4395;48.554;8.820;2024-02-04T06:09:01;96970.06;;;6.40;74.12
8717;BME280;4395;48.554;8.820;2024-02-04T06:11:04;96965.09;;;6.38;74.22
8717;BME280;4395;48.554;8.820;2024-02-04T06:13:07;96969.84;;;6.41;74.15
8717;BME280;4395;48.554;8.820;2024-02-04T06:15:13;96965.88;;;6.39;74.10
8717;BME280;4395;48.554;8.820;2024-02-04T06:17:16;96964.66;;;6.41;74.16
8717;BME280;4395;48.554;8.820;2024-02-04T06:19:19;96967.84;;;6.43;74.01
8717;BME280;4395;48.554;8.820;2024-02-04T06:21:22;96964.66;;;6.41;73.91
8717;BME280;4395;48.554;8.820;2024-02-04T06:23:25;96975.03;;;6.41;73.82
8717;BME280;4395;48.554;8.820;2024-02-04T06:25:26;96979.41;;;6.41;73.85
8717;BME280;4395;48.554;8.820;2024-02-04T06:27:29;96980.63;;;6.38;73.81
8717;BME280;4395;48.554;8.820;2024-02-04T06:29:32;96969.28;;;6.39;73.88
8717;BME280;4395;48.554;8.820;2024-02-04T06:31:36;96976.25;;;6.39;73.84
8717;BME280;4395;48.554;8.820;2024-02-04T06:33:39;96968.25;;;6.40;73.87
8717;BME280;4395;48.554;8.820;2024-02-04T06:35:42;96977.81;;;6.46;73.89
8717;BME280;4395;48.554;8.820;2024-02-04T06:37:45;96973.84;;;6.50;73.51
8717;BME280;4395;48.554;8.820;2024-02-04T06:39:48;96975.81;;;6.48;73.53
8717;BME280;4395;48.554;8.820;2024-02-04T06:41:51;96985.78;;;6.52;73.38
8717;BME280;4395;48.554;8.820;2024-02-04T06:43:53;96996.69;;;6.54;73.32
8717;BME280;4395;48.554;8.820;2024-02-04T06:45:56;97000.09;;;6.54;73.23
8717;BME280;4395;48.554;8.820;2024-02-04T06:48:02;96994.94;;;6.61;73.20
8717;BME280;4395;48.554;8.820;2024-02-04T06:50:07;97001.69;;;6.62;72.98
8717;BME280;4395;48.554;8.820;2024-02-04T06:52:10;96999.72;;;6.64;72.70
8717;BME280;4395;48.554;8.820;2024-02-04T06:54:13;96989.34;;;6.64;72.93
8717;BME280;4395;48.554;8.820;2024-02-04T06:56:16;96990.91;;;6.65;73.00
8717;BME280;4395;48.554;8.820;2024-02-04T06:58:19;96981.00;;;6.62;72.83
8717;BME280;4395;48.554;8.820;2024-02-04T07:00:24;96975.41;;;6.58;72.98
8717;BME280;4395;48.554;8.820;2024-02-04T07:02:27;96983.56;;;6.55;73.14
8717;BME280;4395;48.554;8.820;2024-02-04T07:04:31;96975.00;;;6.55;73.10
8717;BME280;4395;48.554;8.820;2024-02-04T07:06:34;96969.03;;;6.54;73.06
8717;BME280;4395;48.554;8.820;2024-02-04T07:08:37;96961.47;;;6.53;72.93
8717;BME280;4395;48.554;8.820;2024-02-04T07:10:40;96961.47;;;6.53;73.05
8717;BME280;4395;48.554;8.820;2024-02-04T07:12:43;96969.22;;;6.53;72.78
8717;BME280;4395;48.554;8.820;2024-02-04T07:14:46;96956.84;;;6.88;73.20
8717;BME280;4395;48.554;8.820;2024-02-04T07:16:49;96962.59;;;6.96;72.76
8717;BME280;4395;48.554;8.820;2024-02-04T07:18:52;96955.06;;;6.88;71.93
8717;BME280;4395;48.554;8.820;2024-02-04T07:20:56;96953.06;;;6.83;72.14
8717;BME280;4395;48.554;8.820;2024-02-04T07:22:59;96952.66;;;6.80;72.22
8717;BME280;4395;48.554;8.820;2024-02-04T07:25:02;96942.72;;;6.77;72.48
8717;BME280;4395;48.554;8.820;2024-02-04T07:27:05;96950.31;;;6.72;72.60
8717;BME280;4395;48.554;8.820;2024-02-04T07:29:08;96945.53;;;6.69;72.95
8717;BME280;4395;48.554;8.820;2024-02-04T07:31:10;96939.16;;;6.65;72.92
8717;BME280;4395;48.554;8.820;2024-02-04T07:33:13;96938.78;;;6.61;73.13
8717;BME280;4395;48.554;8.820;2024-02-04T07:35:17;96940.38;;;6.62;73.28
8717;BME280;4395;48.554;8.820;2024-02-04T07:37:21;96933.63;;;6.61;73.39
8717;BME280;4395;48.554;8.820;2024-02-04T07:39:23;96925.22;;;6.66;73.35
8717;BME280;4395;48.554;8.820;2024-02-04T07:41:26;96935.56;;;6.66;73.28
8717;BME280;4395;48.554;8.820;2024-02-04T07:43:29;96939.16;;;6.65;73.46
8717;BME280;4395;48.554;8.820;2024-02-04T07:45:32;96938.16;;;6.66;73.38
8717;BME280;4395;48.554;8.820;2024-02-04T07:47:35;96932.00;;;6.67;73.60
8717;BME280;4395;48.554;8.820;2024-02-04T07:49:37;96941.75;;;6.65;73.57
8717;BME280;4395;48.554;8.820;2024-02-04T07:51:40;96944.34;;;6.65;73.38
8717;BME280;4395;48.554;8.820;2024-02-04T07:53:45;96945.56;;;6.56;73.78
8717;BME280;4395;48.554;8.820;2024-02-04T07:55:47;96946.34;;;6.56;73.77
8717;BME280;4395;48.554;8.820;2024-02-04T07:57:51;96939.97;;;6.59;73.95
8717;BME280;4395;48.554;8.820;2024-02-04T07:59:54;96942.19;;;6.62;73.74
8717;BME280;4395;48.554;8.820;2024-02-04T08:01:57;96937.19;;;6.60;73.63
8717;BME280;4395;48.554;8.820;2024-02-04T08:03:59;96932.81;;;6.61;73.76
8717;BME280;4395;48.554;8.820;2024-02-04T08:06:04;96943.38;;;6.59;73.67
8717;BME280;4395;48.554;8.820;2024-02-04T08:08:07;96931.41;;;6.58;73.85
8717;BME280;4395;48.554;8.820;2024-02-04T08:10:12;96928.81;;;6.65;73.78
8717;BME280;4395;48.554;8.820;2024-02-04T08:12:16;96922.63;;;6.72;73.38
8717;BME280;4395;48.554;8.820;2024-02-04T08:14:19;96915.28;;;6.69;73.46
8717;BME280;4395;48.554;8.820;2024-02-04T08:16:21;96924.44;;;6.72;73.48
8717;BME280;4395;48.554;8.820;2024-02-04T08:18:24;96924.81;;;6.69;73.34
8717;BME280;4395;48.554;8.820;2024-02-04T08:20:27;96919.66;;;6.69;73.25
8717;BME280;4395;48.554;8.820;2024-02-04T08:22:30;96919.06;;;6.73;73.23
8717;BME280;4395;48.554;8.820;2024-02-04T08:24:33;96922.00;;;6.77;73.14
8717;BME280;4395;48.554;8.820;2024-02-04T08:26:37;96913.66;;;6.81;72.85
8717;BME280;4395;48.554;8.820;2024-02-04T08:28:40;96914.41;;;6.88;73.04
8717;BME280;4395;48.554;8.820;2024-02-04T08:30:43;96919.56;;;6.95;72.60
8717;BME280;4395;48.554;8.820;2024-02-04T08:32:46;96917.38;;;6.99;72.32
8717;BME280;4395;48.554;8.820;2024-02-04T08:34:49;96929.53;;;6.98;72.44
8717;BME280;4395;48.554;8.820;2024-02-04T08:36:52;96925.50;;;7.02;72.10
8717;BME280;4395;48.554;8.820;2024-02-04T08:38:55;96918.94;;;7.06;71.95
8717;BME280;4395;48.554;8.820;2024-02-04T08:40:58;96916.69;;;7.16;71.90
8717;BME280;4395;48.554;8.820;2024-02-04T08:43:02;96922.66;;;7.23;71.85
8717;BME280;4395;48.554;8.820;2024-02-04T08:45:06;96909.69;;;7.23;71.40
8717;BME280;4395;48.554;8.820;2024-02-04T08:47:08;96917.84;;;7.27;70.96
8717;BME280;4395;48.554;8.820;2024-02-04T08:49:12;96921.81;;;7.30;71.05
8717;BME280;4395;48.554;8.820;2024-02-04T08:51:15;96915.03;;;7.29;70.98
8717;BME280;4395;48.554;8.820;2024-02-04T08:53:18;96933.16;;;7.29;70.78
8717;BME280;4395;48.554;8.820;2024-02-04T08:55:20;96921.41;;;7.33;70.99
8717;BME280;4395;48.554;8.820;2024-02-04T08:57:23;96941.28;;;7.39;70.92
8717;BME280;4395;48.554;8.820;2024-02-04T08:59:27;96942.47;;;7.43;70.58
8717;BME280;4395;48.554;8.820;2024-02-04T09:01:30;96942.06;;;7.46;69.99
8717;BME280;4395;48.554;8.820;2024-02-04T09:03:33;96934.88;;;7.48;69.84
8717;BME280;4395;48.554;8.820;2024-02-04T09:05:36;96935.63;;;7.55;69.98
8717;BME280;4395;48.554;8.820;2024-02-04T09:07:42;96935.81;;;7.60;69.85
8717;BME280;4395;48.554;8.820;2024-02-04T09:09:45;96928.38;;;7.70;69.28
8717;BME280;4395;48.554;8.820;2024-02-04T09:11:48;96930.31;;;7.75;69.24
8717;BME280;4395;48.554;8.820;2024-02-04T09:13:51;96934.47;;;7.82;69.15
8717;BME280;4395;48.554;8.820;2024-02-04T09:15:55;96935.81;;;7.85;68.82
8717;BME280;4395;48.554;8.820;2024-02-04T09:17:58;96939.66;;;7.82;68.19
8717;BME280;4395;48.554;8.820;2024-02-04T09:20:01;96955.63;;;7.79;68.66
8717;BME280;4395;48.554;8.820;2024-02-04T09:22:04;96935.50;;;7.75;68.54
8717;BME280;4395;48.554;8.820;2024-02-04T09:24:07;96938.47;;;7.78;68.79
8717;BME280;4395;48.554;8.820;2024-02-04T09:26:10;96934.28;;;7.77;68.58
8717;BME280;4395;48.554;8.820;2024-02-04T09:28:15;96932.47;;;7.84;68.91
8717;BME280;4395;48.554;8.820;2024-02-04T09:30:17;96928.69;;;7.80;68.37
8717;BME280;4395;48.554;8.820;2024-02-04T09:32:21;96935.16;;;7.71;68.81
8717;BME280;4395;48.554;8.820;2024-02-04T09:34:24;96928.31;;;7.77;68.68
8717;BME280;4395;48.554;8.820;2024-02-04T09:36:27;96921.31;;;7.84;68.49
8717;BME280;4395;48.554;8.820;2024-02-04T09:38:30;96930.88;;;7.83;68.79
8717;BME280;4395;48.554;8.820;2024-02-04T09:40:33;96936.13;;;8.02;69.03
8717;BME280;4395;48.554;8.820;2024-02-04T09:42:36;96937.44;;;8.11;68.17
8717;BME280;4395;48.554;8.820;2024-02-04T09:44:39;96938.88;;;8.07;68.15
8717;BME280;4395;48.554;8.820;2024-02-04T09:46:42;96944.44;;;8.10;67.88
8717;BME280;4395;48.554;8.820;2024-02-04T09:48:47;96942.56;;;7.92;68.13
8717;BME280;4395;48.554;8.820;2024-02-04T09:50:52;96940.59;;;7.88;68.43
8717;BME280;4395;48.554;8.820;2024-02-04T09:52:58;96946.63;;;7.82;68.39
8717;BME280;4395;48.554;8.820;2024-02-04T09:55:03;96954.88;;;7.72;68.65
8717;BME280;4395;48.554;8.820;2024-02-04T09:57:07;96949.44;;;7.80;68.87
8717;BME280;4395;48.554;8.820;2024-02-04T09:59:11;96967.78;;;7.79;68.53
8717;BME280;4395;48.554;8.820;2024-02-04T10:01:14;96966.19;;;7.84;68.61
8717;BME280;4395;48.554;8.820;2024-02-04T10:03:17;96966.75;;;7.86;68.63
8717;BME280;4395;48.554;8.820;2024-02-04T10:05:22;96957.81;;;7.82;68.45
8717;BME280;4395;48.554;8.820;2024-02-04T10:07:25;96965.72;;;7.87;68.52
8717;BME280;4395;48.554;8.820;2024-02-04T10:09:28;96985.88;;;7.85;68.62
8717;BME280;4395;48.554;8.820;2024-02-04T10:11:33;96970.59;;;7.77;68.79
8717;BME280;4395;48.554;8.820;2024-02-04T10:13:42;96969.78;;;7.77;69.15
8717;BME280;4395;48.554;8.820;2024-02-04T10:15:45;96963.31;;;7.92;69.35
8717;BME280;4395;48.554;8.820;2024-02-04T10:17:48;96953.69;;;8.00;68.81
8717;BME280;4395;48.554;8.820;2024-02-04T10:19:51;96933.84;;;8.12;68.77
8717;BME280;4395;48.554;8.820;2024-02-04T10:22:01;96932.66;;;8.39;67.80
8717;BME280;4395;48.554;8.820;2024-02-04T10:24:06;96927.03;;;8.42;66.42
8717;BME280;4395;48.554;8.820;2024-02-04T10:26:09;96921.25;;;8.40;66.81
8717;BME280;4395;48.554;8.820;2024-02-04T10:28:11;96921.06;;;8.42;66.95
8717;BME280;4395;48.554;8.820;2024-02-04T10:30:14;96917.06;;;8.39;67.19
8717;BME280;4395;48.554;8.820;2024-02-04T10:32:21;96915.06;;;8.41;66.88
8717;BME280;4395;48.554;8.820;2024-02-04T10:34:25;96901.75;;;8.56;67.06
8717;BME280;4395;48.554;8.820;2024-02-04T10:36:30;96852.34;;;8.81;65.97
8717;BME280;4395;48.554;8.820;2024-02-04T10:38:34;96884.31;;;9.11;65.40
8717;BME280;4395;48.554;8.820;2024-02-04T10:40:37;96920.31;;;9.26;65.25
8717;BME280;4395;48.554;8.820;2024-02-04T10:42:42;96931.00;;;9.18;64.75
8717;BME280;4395;48.554;8.820;2024-02-04T10:44:46;96907.38;;;8.89;64.84
8717;BME280;4395;48.554;8.820;2024-02-04T10:46:52;96900.81;;;9.05;65.21
8717;BME280;4395;48.554;8.820;2024-02-04T10:48:59;96899.75;;;9.24;64.46
8717;BME280;4395;48.554;8.820;2024-02-04T10:51:03;96885.16;;;9.23;64.36
8717;BME280;4395;48.554;8.820;2024-02-04T10:53:06;96879.94;;;9.12;64.59
8717;BME280;4395;48.554;8.820;2024-02-04T10:55:15;96873.84;;;9.18;64.95
8717;BME280;4395;48.554;8.820;2024-02-04T10:57:20;96872.88;;;9.30;65.47
8717;BME280;4395;48.554;8.820;2024-02-04T10:59:25;96882.78;;;9.52;64.54
8717;BME280;4395;48.554;8.820;2024-02-04T11:01:32;96874.88;;;9.58;64.33
8717;BME280;4395;48.554;8.820;2024-02-04T11:03:35;96887.16;;;9.93;64.19
8717;BME280;4395;48.554;8.820;2024-02-04T11:05:39;96876.78;;;10.16;62.40
8717;BME280;4395;48.554;8.820;2024-02-04T11:07:45;96882.34;;;10.43;61.26
8717;BME280;4395;48.554;8.820;2024-02-04T11:09:48;96877.91;;;10.67;61.26
8717;BME280;4395;48.554;8.820;2024-02-04T11:11:55;96897.03;;;10.72;60.07
8717;BME280;4395;48.554;8.820;2024-02-04T11:14:01;96904.66;;;10.62;61.36
8717;BME280;4395;48.554;8.820;2024-02-04T11:16:15;96909.72;;;10.80;60.86
8717;BME280;4395;48.554;8.820;2024-02-04T11:21:39;96880.22;;;10.92;59.26
8717;BME280;4395;48.554;8.820;2024-02-04T11:23:51;96874.56;;;11.23;59.43